Time;durP1;ratioP1;P1;durP2;ratioP2;P2;SDS_P1;SDS_P2;PMS_P1;PMS_P2;Temp;Humidity;BMP_temperature;BMP_pressure;BME280_temperature;BME280_humidity;BME280_pressure;Samples;Min_cycle;Max_cycle;Signal;HPM_P1;HPM_P2
2020/12/26 00:00:00;;;;;;;22.30;13.43;;;;;;;;;;4974854;28;20486;-86
2020/12/26 00:02:26;;;;;;;31.70;13.60;;;;;;;;;;4975291;28;20026;-86
2020/12/26 00:04:51;;;;;;;20.27;11.97;;;;;;;;;;4974905;28;20015;-86
2020/12/26 00:07:16;;;;;;;22.10;12.20;;;;;;;;;;4974692;28;20065;-85
2020/12/26 00:09:42;;;;;;;28.47;12.13;;;;;;;;;;4974773;28;20023;-86
2020/12/26 00:12:07;;;;;;;25.07;11.83;;;;;;;;;;4974489;28;20029;-86
2020/12/26 00:14:32;;;;;;;28.73;13.40;;;;;;;;;;4974849;28;20030;-86
2020/12/26 00:16:58;;;;;;;24.40;13.47;;;;;;;;;;4974945;28;20149;-85
2020/12/26 00:19:23;;;;;;;31.27;13.03;;;;;;;;;;4974711;28;20101;-86
2020/12/26 00:21:49;;;;;;;25.13;12.03;;;;;;;;;;4974140;28;20029;-85
2020/12/26 00:24:14;;;;;;;23.87;12.97;;;;;;;;;;4975579;28;20015;-85
2020/12/26 00:26:39;;;;;;;26.47;11.03;;;;;;;;;;4974039;28;20355;-85
2020/12/26 00:29:04;;;;;;;26.77;11.80;;;;;;;;;;4963883;28;20061;-85
2020/12/26 00:31:30;;;;;;;28.73;11.60;;;;;;;;;;4974533;28;20427;-86
2020/12/26 00:33:55;;;;;;;23.50;11.37;;;;;;;;;;4973941;28;20023;-86
2020/12/26 00:36:20;;;;;;;26.27;11.83;;;;;;;;;;4974800;28;20033;-86
2020/12/26 00:38:45;;;;;;;21.40;11.10;;;;;;;;;;4974307;28;20027;-85
2020/12/26 00:41:11;;;;;;;20.60;10.97;;;;;;;;;;4974167;28;20107;-86
2020/12/26 00:43:36;;;;;;;27.53;10.43;;;;;;;;;;4974276;28;20049;-85
2020/12/26 00:46:01;;;;;;;23.73;10.73;;;;;;;;;;4974164;28;20518;-86
2020/12/26 00:48:26;;;;;;;17.63;9.43;;;;;;;;;;4974040;28;20018;-85
2020/12/26 00:50:52;;;;;;;21.00;9.30;;;;;;;;;;4973414;28;20042;-85
2020/12/26 00:53:17;;;;;;;19.80;9.30;;;;;;;;;;4973691;28;20347;-85
2020/12/26 00:55:42;;;;;;;23.97;9.47;;;;;;;;;;4975390;28;20019;-86
2020/12/26 00:58:07;;;;;;;20.53;8.57;;;;;;;;;;4975399;28;20591;-86
2020/12/26 01:00:32;;;;;;;18.03;8.70;;;;;;;;;;4974245;28;20018;-86
2020/12/26 01:02:58;;;;;;;22.80;8.83;;;;;;;;;;4974995;28;20034;-85
2020/12/26 01:05:23;;;;;;;20.73;8.43;;;;;;;;;;4974721;28;20441;-85
2020/12/26 01:07:48;;;;;;;16.77;8.80;;;;;;;;;;4974954;28;20023;-84
2020/12/26 01:10:13;;;;;;;22.37;9.67;;;;;;;;;;4973564;28;20026;-85
2020/12/26 01:12:40;;;;;;;21.57;8.53;;;;;;;;;;4973402;28;20037;-85
2020/12/26 01:15:05;;;;;;;21.13;8.70;;;;;;;;;;4973564;28;20019;-85
2020/12/26 01:17:31;;;;;;;23.83;9.60;;;;;;;;;;4973718;28;20161;-85
2020/12/26 01:19:56;;;;;;;19.97;9.00;;;;;;;;;;4973414;28;20023;-85
2020/12/26 01:22:21;;;;;;;15.10;8.43;;;;;;;;;;4974596;28;20026;-85
2020/12/26 01:24:46;;;;;;;22.13;8.90;;;;;;;;;;4973210;28;20411;-85
2020/12/26 01:27:11;;;;;;;14.43;7.87;;;;;;;;;;4973294;28;20019;-85
2020/12/26 01:29:36;;;;;;;16.43;8.23;;;;;;;;;;4973278;28;20421;-85
2020/12/26 01:32:02;;;;;;;23.90;9.47;;;;;;;;;;4972934;28;20019;-85
2020/12/26 01:34:27;;;;;;;18.77;9.40;;;;;;;;;;4974105;28;20026;-85
2020/12/26 01:36:52;;;;;;;14.73;8.37;;;;;;;;;;4973169;28;20157;-85
2020/12/26 01:39:18;;;;;;;13.40;7.40;;;;;;;;;;4972964;28;20023;-85
2020/12/26 01:41:47;;;;;;;15.47;8.03;;;;;;;;;;4973363;28;20030;-84
2020/12/26 01:44:12;;;;;;;18.53;8.43;;;;;;;;;;4974463;28;20139;-85
2020/12/26 01:46:37;;;;;;;15.50;7.27;;;;;;;;;;4974418;28;20099;-84
2020/12/26 01:49:02;;;;;;;12.80;7.10;;;;;;;;;;4974315;28;20486;-84
2020/12/26 01:51:30;;;;;;;13.87;6.90;;;;;;;;;;4972871;28;20023;-84
2020/12/26 01:53:56;;;;;;;18.67;7.10;;;;;;;;;;4972313;28;20053;-84
2020/12/26 01:56:21;;;;;;;16.53;7.57;;;;;;;;;;4972583;28;20106;-85
2020/12/26 01:58:46;;;;;;;15.80;7.90;;;;;;;;;;4972781;28;20035;-85
2020/12/26 02:01:11;;;;;;;18.80;7.93;;;;;;;;;;4972745;28;20031;-85
2020/12/26 02:03:37;;;;;;;12.87;7.07;;;;;;;;;;4971804;28;20050;-84
2020/12/26 02:06:03;;;;;;;14.50;7.03;;;;;;;;;;4972644;28;20023;-84
2020/12/26 02:08:28;;;;;;;17.90;7.83;;;;;;;;;;4972569;28;20497;-84
2020/12/26 02:10:53;;;;;;;18.80;8.00;;;;;;;;;;4972463;28;20023;-85
2020/12/26 02:13:19;;;;;;;16.30;8.00;;;;;;;;;;4973604;28;20085;-84
2020/12/26 02:15:44;;;;;;;18.30;7.30;;;;;;;;;;4972130;28;20109;-85
2020/12/26 02:18:09;;;;;;;20.17;8.37;;;;;;;;;;4972047;28;20476;-85
2020/12/26 02:20:34;;;;;;;16.43;7.53;;;;;;;;;;4972337;28;20031;-84
2020/12/26 02:23:01;;;;;;;18.73;7.10;;;;;;;;;;4972254;28;20072;-85
2020/12/26 02:25:26;;;;;;;14.03;7.70;;;;;;;;;;4972438;28;20458;-85
2020/12/26 02:27:52;;;;;;;15.50;7.00;;;;;;;;;;4972047;28;20084;-85
2020/12/26 02:30:17;;;;;;;15.47;6.90;;;;;;;;;;4972516;28;20046;-85
2020/12/26 02:32:42;;;;;;;12.70;6.67;;;;;;;;;;4971948;28;20497;-85
2020/12/26 02:35:07;;;;;;;16.33;6.67;;;;;;;;;;4971074;28;20018;-85
2020/12/26 02:37:32;;;;;;;12.23;6.73;;;;;;;;;;4972916;28;20093;-85
2020/12/26 02:39:58;;;;;;;18.00;7.33;;;;;;;;;;4973122;28;20376;-85
2020/12/26 02:42:23;;;;;;;12.37;6.00;;;;;;;;;;4973168;28;20025;-85
2020/12/26 02:44:48;;;;;;;11.77;6.53;;;;;;;;;;4972146;28;20023;-85
2020/12/26 02:47:13;;;;;;;11.87;6.37;;;;;;;;;;4972004;28;20510;-85
2020/12/26 02:49:38;;;;;;;12.30;6.07;;;;;;;;;;4971866;28;20015;-85
2020/12/26 02:52:03;;;;;;;20.57;7.60;;;;;;;;;;4971565;28;20038;-85
2020/12/26 02:54:29;;;;;;;13.40;6.57;;;;;;;;;;4971590;28;20089;-85
2020/12/26 02:56:54;;;;;;;12.03;6.60;;;;;;;;;;4971670;28;20386;-85
2020/12/26 02:59:19;;;;;;;17.33;6.20;;;;;;;;;;4971524;28;20034;-85
2020/12/26 03:01:44;;;;;;;9.70;6.17;;;;;;;;;;4972882;28;20478;-84
2020/12/26 03:04:09;;;;;;;11.93;5.80;;;;;;;;;;4971323;28;20027;-85
2020/12/26 03:06:35;;;;;;;12.30;6.23;;;;;;;;;;4971408;28;20027;-85
2020/12/26 03:09:00;;;;;;;13.33;6.53;;;;;;;;;;4971805;28;20015;-85
2020/12/26 03:11:25;;;;;;;10.87;5.67;;;;;;;;;;4971475;28;20047;-84
2020/12/26 03:13:50;;;;;;;13.73;5.93;;;;;;;;;;4972681;28;20047;-85
2020/12/26 03:16:16;;;;;;;11.97;5.70;;;;;;;;;;4971425;28;20018;-85
2020/12/26 03:18:42;;;;;;;13.47;5.83;;;;;;;;;;4971486;28;20458;-85
2020/12/26 03:21:07;;;;;;;12.37;5.63;;;;;;;;;;4972505;28;20029;-84
2020/12/26 03:23:32;;;;;;;12.53;5.87;;;;;;;;;;4971301;28;20386;-85
2020/12/26 03:25:57;;;;;;;13.77;5.80;;;;;;;;;;4971061;28;20422;-85
2020/12/26 03:28:22;;;;;;;10.93;5.17;;;;;;;;;;4972295;28;20021;-85
2020/12/26 03:30:48;;;;;;;15.70;6.13;;;;;;;;;;4971225;28;20701;-85
2020/12/26 03:33:13;;;;;;;11.40;5.40;;;;;;;;;;4971029;28;20027;-85
2020/12/26 03:35:38;;;;;;;12.63;5.70;;;;;;;;;;4971262;28;20106;-85
2020/12/26 03:38:03;;;;;;;10.47;4.90;;;;;;;;;;4971067;28;20038;-85
2020/12/26 03:40:28;;;;;;;10.47;5.50;;;;;;;;;;4971508;28;20061;-85
2020/12/26 03:42:54;;;;;;;12.10;5.10;;;;;;;;;;4972684;28;20018;-85
2020/12/26 03:45:21;;;;;;;12.10;5.30;;;;;;;;;;4970857;28;20015;-85
2020/12/26 03:47:46;;;;;;;7.87;4.47;;;;;;;;;;4971131;28;20344;-85
2020/12/26 03:50:11;;;;;;;8.53;4.47;;;;;;;;;;4971182;28;20026;-85
2020/12/26 03:52:36;;;;;;;8.63;4.70;;;;;;;;;;4972192;28;20023;-85
2020/12/26 03:55:02;;;;;;;10.27;4.73;;;;;;;;;;4970866;28;20023;-85
2020/12/26 03:57:27;;;;;;;9.60;4.77;;;;;;;;;;4970812;28;20027;-85
2020/12/26 03:59:52;;;;;;;11.00;4.80;;;;;;;;;;4970620;28;20026;-85
2020/12/26 04:02:17;;;;;;;8.57;4.60;;;;;;;;;;4972399;28;20114;-85
2020/12/26 04:04:42;;;;;;;11.67;4.60;;;;;;;;;;4970960;28;20105;-85
2020/12/26 04:07:08;;;;;;;9.77;4.77;;;;;;;;;;4970987;28;20451;-84
2020/12/26 04:09:33;;;;;;;8.10;4.23;;;;;;;;;;4971210;28;20029;-85
2020/12/26 04:11:58;;;;;;;8.57;4.40;;;;;;;;;;4970609;28;20029;-85
2020/12/26 04:14:23;;;;;;;8.90;4.50;;;;;;;;;;4971020;28;20027;-85
2020/12/26 04:16:54;;;;;;;11.43;4.53;;;;;;;;;;4970764;28;20015;-85
2020/12/26 04:19:19;;;;;;;9.60;4.80;;;;;;;;;;4970818;28;20019;-85
2020/12/26 04:21:44;;;;;;;7.90;4.20;;;;;;;;;;4970620;28;20023;-85
2020/12/26 04:24:10;;;;;;;13.73;4.53;;;;;;;;;;4972093;28;20102;-85
2020/12/26 04:26:35;;;;;;;10.60;5.10;;;;;;;;;;4970840;28;20026;-85
2020/12/26 04:29:00;;;;;;;9.70;4.60;;;;;;;;;;4971914;28;20069;-85
2020/12/26 04:31:25;;;;;;;9.13;4.60;;;;;;;;;;4970694;28;20022;-84
2020/12/26 04:33:50;;;;;;;12.43;4.70;;;;;;;;;;4972221;28;20019;-85
2020/12/26 04:36:16;;;;;;;8.93;4.17;;;;;;;;;;4970823;28;20026;-84
2020/12/26 04:38:41;;;;;;;9.43;4.50;;;;;;;;;;4973113;28;20108;-85
2020/12/26 04:41:06;;;;;;;6.63;4.23;;;;;;;;;;4974375;28;20161;-84
2020/12/26 04:43:31;;;;;;;10.10;4.57;;;;;;;;;;4974590;28;20054;-85
2020/12/26 04:45:57;;;;;;;8.57;4.90;;;;;;;;;;4973853;28;20074;-84
2020/12/26 04:48:23;;;;;;;7.40;4.43;;;;;;;;;;4973802;28;20019;-84
2020/12/26 04:50:50;;;;;;;11.10;5.30;;;;;;;;;;4975340;28;20046;-85
2020/12/26 04:53:16;;;;;;;8.73;4.87;;;;;;;;;;4975260;28;20085;-85
2020/12/26 04:55:45;;;;;;;10.70;4.73;;;;;;;;;;4973705;28;20118;-83
2020/12/26 04:58:14;;;;;;;16.90;4.97;;;;;;;;;;4973826;28;20089;-85
2020/12/26 05:00:39;;;;;;;13.70;5.30;;;;;;;;;;4973949;28;20015;-85
2020/12/26 05:03:11;;;;;;;8.67;4.90;;;;;;;;;;4973638;28;20490;-84
2020/12/26 05:05:41;;;;;;;8.88;4.50;;;;;;;;;;4973578;28;20576;-84
2020/12/26 05:08:07;;;;;;;10.37;5.10;;;;;;;;;;4973819;28;20026;-85
2020/12/26 05:10:32;;;;;;;11.53;4.70;;;;;;;;;;4973787;28;20095;-85
2020/12/26 05:12:58;;;;;;;12.30;4.80;;;;;;;;;;4974466;28;20470;-84
2020/12/26 05:15:24;;;;;;;7.20;4.30;;;;;;;;;;4975085;28;20034;-85
2020/12/26 05:17:49;;;;;;;6.57;4.43;;;;;;;;;;4973110;28;20470;-85
2020/12/26 05:20:14;;;;;;;8.80;4.37;;;;;;;;;;4973649;28;20725;-85
2020/12/26 05:22:39;;;;;;;10.87;5.37;;;;;;;;;;4973015;28;20101;-84
2020/12/26 05:25:06;;;;;;;8.77;5.10;;;;;;;;;;4973854;28;20019;-85
2020/12/26 05:27:31;;;;;;;11.37;5.10;;;;;;;;;;4973313;28;20030;-85
2020/12/26 05:29:56;;;;;;;14.27;5.80;;;;;;;;;;4973023;28;20114;-85
2020/12/26 05:32:21;;;;;;;10.23;5.40;;;;;;;;;;4973267;28;20066;-85
2020/12/26 05:34:46;;;;;;;9.70;4.63;;;;;;;;;;4972898;28;20034;-84
2020/12/26 05:37:13;;;;;;;10.93;5.27;;;;;;;;;;4973054;28;20030;-85
2020/12/26 05:39:39;;;;;;;10.93;5.20;;;;;;;;;;4973191;28;20054;-84
2020/12/26 05:42:07;;;;;;;11.90;5.73;;;;;;;;;;4972939;28;20050;-84
2020/12/26 05:44:34;;;;;;;12.60;6.07;;;;;;;;;;4974439;28;20038;-84
2020/12/26 05:47:00;;;;;;;10.30;5.53;;;;;;;;;;4973039;28;20113;-84
2020/12/26 05:49:27;;;;;;;10.20;5.40;;;;;;;;;;4972229;28;20114;-84
2020/12/26 05:51:53;;;;;;;15.23;6.07;;;;;;;;;;4972537;28;20054;-84
2020/12/26 05:54:19;;;;;;;10.10;5.33;;;;;;;;;;4973254;28;20022;-85
2020/12/26 05:56:44;;;;;;;12.27;5.67;;;;;;;;;;4973145;28;20413;-85
2020/12/26 05:59:25;;;;;;;15.90;6.00;;;;;;;;;;4973909;28;20037;-84
2020/12/26 06:01:51;;;;;;;10.60;5.80;;;;;;;;;;4974349;28;20590;-84
2020/12/26 06:04:20;;;;;;;12.33;5.50;;;;;;;;;;4972602;28;20117;-84
2020/12/26 06:06:49;;;;;;;8.33;5.53;;;;;;;;;;4973358;28;20324;-84
2020/12/26 06:09:15;;;;;;;15.90;6.00;;;;;;;;;;4972493;28;20323;-84
2020/12/26 06:11:41;;;;;;;17.37;6.13;;;;;;;;;;4972534;28;20023;-84
2020/12/26 06:14:07;;;;;;;15.43;6.53;;;;;;;;;;4972251;28;20031;-84
2020/12/26 06:16:33;;;;;;;11.60;5.60;;;;;;;;;;4972574;28;20054;-84
2020/12/26 06:18:59;;;;;;;11.70;5.43;;;;;;;;;;4973461;28;20054;-84
2020/12/26 06:21:25;;;;;;;12.97;5.13;;;;;;;;;;4972522;28;20067;-85
2020/12/26 06:23:51;;;;;;;12.40;5.97;;;;;;;;;;4972252;28;20030;-84
2020/12/26 06:26:20;;;;;;;10.70;5.53;;;;;;;;;;4971948;28;20461;-84
2020/12/26 06:28:45;;;;;;;12.17;6.40;;;;;;;;;;4972340;28;20027;-84
2020/12/26 06:31:11;;;;;;;12.90;5.60;;;;;;;;;;4971920;28;20895;-85
2020/12/26 06:33:40;;;;;;;11.17;5.67;;;;;;;;;;4971997;28;20026;-84
2020/12/26 06:36:06;;;;;;;14.30;6.17;;;;;;;;;;4971858;28;20394;-84
2020/12/26 06:38:31;;;;;;;17.23;7.37;;;;;;;;;;4972171;28;20037;-84
2020/12/26 06:40:57;;;;;;;19.70;9.20;;;;;;;;;;4972182;28;20023;-84
2020/12/26 06:43:40;;;;;;;25.33;10.33;;;;;;;;;;4972870;28;20019;-84
2020/12/26 06:46:26;;;;;;;11.20;5.23;;;;;;;;;;4972071;28;20015;-84
2020/12/26 06:48:55;;;;;;;9.63;5.63;;;;;;;;;;4973165;28;20030;-84
2020/12/26 06:51:21;;;;;;;18.50;6.80;;;;;;;;;;4971891;28;20018;-84
2020/12/26 06:53:46;;;;;;;14.40;5.53;;;;;;;;;;4971245;28;20031;-84
2020/12/26 06:56:31;;;;;;;15.40;5.53;;;;;;;;;;4973064;28;20039;-84
2020/12/26 06:58:56;;;;;;;14.57;5.47;;;;;;;;;;4971314;28;20030;-84
2020/12/26 07:01:22;;;;;;;12.93;5.63;;;;;;;;;;4971635;28;20034;-84
2020/12/26 07:03:47;;;;;;;16.97;6.13;;;;;;;;;;4971057;28;20025;-84
2020/12/26 07:06:32;;;;;;;13.27;5.47;;;;;;;;;;4971558;28;20010;-84
2020/12/26 07:08:57;;;;;;;15.63;6.03;;;;;;;;;;4971252;28;20478;-84
2020/12/26 07:11:25;;;;;;;14.00;5.30;;;;;;;;;;4973063;28;20022;-84
2020/12/26 07:13:51;;;;;;;22.07;5.90;;;;;;;;;;4971779;28;20023;-84
2020/12/26 07:16:36;;;;;;;11.40;5.13;;;;;;;;;;4966678;28;20026;-84
2020/12/26 07:19:21;;;;;;;11.47;5.07;;;;;;;;;;4953622;28;20021;-84
2020/12/26 07:21:50;;;;;;;13.40;5.40;;;;;;;;;;4964668;28;20094;-84
2020/12/26 07:24:16;;;;;;;15.13;5.13;;;;;;;;;;4971733;28;20069;-84
2020/12/26 07:26:41;;;;;;;13.13;5.13;;;;;;;;;;4972747;28;20355;-84
2020/12/26 07:29:09;;;;;;;11.10;4.83;;;;;;;;;;4972908;28;20065;-84
2020/12/26 07:31:45;;;;;;;12.40;4.80;;;;;;;;;;4972860;28;20023;-84
2020/12/26 07:34:31;;;;;;;15.20;5.03;;;;;;;;;;4970630;28;20023;-84
2020/12/26 07:36:56;;;;;;;16.70;4.97;;;;;;;;;;4962692;28;20082;-84
2020/12/26 07:39:21;;;;;;;14.30;4.87;;;;;;;;;;4966987;28;20015;-84
2020/12/26 07:41:46;;;;;;;15.07;4.77;;;;;;;;;;4959358;28;20081;-84
2020/12/26 07:44:14;;;;;;;10.67;4.40;;;;;;;;;;4962540;28;20550;-84
2020/12/26 07:46:42;;;;;;;18.20;4.57;;;;;;;;;;4967344;28;20019;-84
2020/12/26 07:49:12;;;;;;;11.13;4.53;;;;;;;;;;4971376;28;20042;-84
2020/12/26 07:51:38;;;;;;;17.63;5.60;;;;;;;;;;4965805;28;20031;-84
2020/12/26 07:54:03;;;;;;;14.20;4.37;;;;;;;;;;4970047;28;20065;-84
2020/12/26 07:56:28;;;;;;;14.67;4.37;;;;;;;;;;4971335;28;20042;-84
2020/12/26 07:58:55;;;;;;;13.93;4.00;;;;;;;;;;4960118;28;20429;-84
2020/12/26 08:01:25;;;;;;;10.40;4.40;;;;;;;;;;4951956;28;20598;-84
2020/12/26 08:03:58;;;;;;;14.07;4.17;;;;;;;;;;4962462;28;20514;-84
2020/12/26 08:06:24;;;;;;;13.40;3.80;;;;;;;;;;4968711;28;20014;-84
2020/12/26 08:08:51;;;;;;;10.17;3.63;;;;;;;;;;4956260;28;20463;-83
2020/12/26 08:11:21;;;;;;;12.33;3.70;;;;;;;;;;4955790;28;20015;-84
2020/12/26 08:13:57;;;;;;;10.43;3.20;;;;;;;;;;4967061;28;20027;-84
2020/12/26 08:16:22;;;;;;;9.63;3.70;;;;;;;;;;4962848;28;20018;-84
2020/12/26 08:18:47;;;;;;;12.00;3.80;;;;;;;;;;4965226;28;20034;-84
2020/12/26 08:21:16;;;;;;;12.60;3.97;;;;;;;;;;4974223;28;20023;-84
2020/12/26 08:23:41;;;;;;;8.97;3.30;;;;;;;;;;4971236;28;20490;-84
2020/12/26 08:26:07;;;;;;;13.00;3.50;;;;;;;;;;4966815;28;20066;-84
2020/12/26 08:28:35;;;;;;;14.20;4.10;;;;;;;;;;4958186;28;20026;-84
2020/12/26 08:31:05;;;;;;;12.23;4.00;;;;;;;;;;4968250;28;20106;-84
2020/12/26 08:33:35;;;;;;;7.60;3.20;;;;;;;;;;4973446;28;20035;-84
2020/12/26 08:36:00;;;;;;;15.20;3.70;;;;;;;;;;4974411;28;20027;-84
2020/12/26 08:38:27;;;;;;;14.77;3.60;;;;;;;;;;4974247;28;20390;-84
2020/12/26 08:40:57;;;;;;;12.00;3.60;;;;;;;;;;4973665;28;20027;-84
2020/12/26 08:43:23;;;;;;;14.63;3.97;;;;;;;;;;4973622;28;20037;-84
2020/12/26 08:45:48;;;;;;;7.37;3.03;;;;;;;;;;4975664;28;20015;-84
2020/12/26 08:48:15;;;;;;;8.70;3.53;;;;;;;;;;4972478;28;20023;-84
2020/12/26 08:50:40;;;;;;;10.90;3.20;;;;;;;;;;4973286;28;20054;-84
2020/12/26 08:53:07;;;;;;;12.33;4.13;;;;;;;;;;4975073;28;20054;-84
2020/12/26 08:55:44;;;;;;;12.53;3.97;;;;;;;;;;4974320;28;20129;-84
2020/12/26 08:58:09;;;;;;;14.30;3.60;;;;;;;;;;4974041;28;20081;-84
2020/12/26 09:00:36;;;;;;;14.00;3.50;;;;;;;;;;4973886;28;20035;-84
2020/12/26 09:03:01;;;;;;;15.73;3.73;;;;;;;;;;4975453;28;20022;-84
2020/12/26 09:05:30;;;;;;;11.63;3.83;;;;;;;;;;4979377;28;20015;-84
2020/12/26 09:08:06;;;;;;;8.07;3.67;;;;;;;;;;4974111;28;20074;-84
2020/12/26 09:10:32;;;;;;;12.33;4.00;;;;;;;;;;4971585;28;20070;-84
2020/12/26 09:13:01;;;;;;;11.50;3.27;;;;;;;;;;4973989;28;20038;-84
2020/12/26 09:15:26;;;;;;;6.57;3.40;;;;;;;;;;4971096;28;20481;-84
2020/12/26 09:17:51;;;;;;;11.77;3.17;;;;;;;;;;4970670;28;20055;-85
2020/12/26 09:20:17;;;;;;;10.73;3.60;;;;;;;;;;4970066;28;20035;-84
2020/12/26 09:22:42;;;;;;;8.27;3.10;;;;;;;;;;4970273;28;20023;-84
2020/12/26 09:25:39;;;;;;;11.53;3.37;;;;;;;;;;4968755;28;20011;-83
2020/12/26 09:28:04;;;;;;;11.03;3.77;;;;;;;;;;4950495;28;20426;-83
2020/12/26 09:30:30;;;;;;;6.90;3.47;;;;;;;;;;4970463;28;20050;-85
2020/12/26 09:32:55;;;;;;;11.07;3.80;;;;;;;;;;4971468;28;20122;-84
2020/12/26 09:35:20;;;;;;;7.47;3.23;;;;;;;;;;4972787;28;20182;-84
2020/12/26 09:37:57;;;;;;;8.70;3.63;;;;;;;;;;4974483;28;20018;-84
2020/12/26 09:40:33;;;;;;;11.07;3.50;;;;;;;;;;4971045;28;20023;-84
2020/12/26 09:42:58;;;;;;;8.63;3.30;;;;;;;;;;4965538;28;20048;-85
2020/12/26 09:45:23;;;;;;;8.17;3.53;;;;;;;;;;4963334;28;20129;-83
2020/12/26 09:47:49;;;;;;;10.33;3.93;;;;;;;;;;4964941;28;20011;-84
2020/12/26 09:50:14;;;;;;;10.93;3.63;;;;;;;;;;4968046;28;20018;-83
2020/12/26 09:52:39;;;;;;;9.17;4.17;;;;;;;;;;4975685;28;20049;-85
2020/12/26 09:55:07;;;;;;;11.17;4.53;;;;;;;;;;4971585;28;20422;-85
2020/12/26 09:57:32;;;;;;;16.73;4.90;;;;;;;;;;4974309;28;20110;-86
2020/12/26 09:59:58;;;;;;;12.63;5.43;;;;;;;;;;4973355;28;20105;-86
2020/12/26 10:02:23;;;;;;;11.60;4.73;;;;;;;;;;4969627;28;20021;-86
2020/12/26 10:04:48;;;;;;;13.33;5.90;;;;;;;;;;4973280;28;20029;-85
2020/12/26 10:07:13;;;;;;;16.23;6.00;;;;;;;;;;4971307;28;20043;-85
2020/12/26 10:09:39;;;;;;;13.87;5.27;;;;;;;;;;4973237;28;20040;-86
2020/12/26 10:12:04;;;;;;;13.90;5.40;;;;;;;;;;4972929;28;20018;-86
2020/12/26 10:14:29;;;;;;;16.67;5.40;;;;;;;;;;4973126;28;20038;-86
2020/12/26 10:16:54;;;;;;;17.97;5.63;;;;;;;;;;4973205;28;20074;-86
2020/12/26 10:19:19;;;;;;;14.40;5.20;;;;;;;;;;4972357;28;20073;-85
2020/12/26 10:21:50;;;;;;;15.63;6.07;;;;;;;;;;4973178;28;20165;-86
2020/12/26 10:24:15;;;;;;;15.70;5.53;;;;;;;;;;4972720;28;20469;-87
2020/12/26 10:26:41;;;;;;;13.07;5.67;;;;;;;;;;4972484;28;20019;-87
2020/12/26 10:29:06;;;;;;;13.40;5.30;;;;;;;;;;4972352;28;20025;-88
2020/12/26 10:31:31;;;;;;;15.07;4.50;;;;;;;;;;4971815;28;20489;-87
2020/12/26 10:33:57;;;;;;;16.20;5.30;;;;;;;;;;4971835;28;20062;-87
2020/12/26 10:36:22;;;;;;;14.87;5.60;;;;;;;;;;4972018;28;20105;-87
2020/12/26 10:38:47;;;;;;;13.07;4.80;;;;;;;;;;4972441;28;20788;-87
2020/12/26 10:41:12;;;;;;;12.67;4.40;;;;;;;;;;4971994;28;20038;-87
2020/12/26 10:43:37;;;;;;;14.50;4.70;;;;;;;;;;4972475;28;20019;-87
2020/12/26 10:46:04;;;;;;;13.60;4.63;;;;;;;;;;4972771;28;20023;-87
2020/12/26 10:48:29;;;;;;;14.13;4.53;;;;;;;;;;4972378;28;20030;-88
2020/12/26 10:50:54;;;;;;;7.87;1.43;;;;;;;;;;4972381;28;20015;-87
2020/12/26 10:53:23;;;;;;;9.00;3.57;;;;;;;;;;4971624;28;20027;-87
2020/12/26 10:55:48;;;;;;;12.33;4.80;;;;;;;;;;4972384;28;20701;-87
2020/12/26 10:58:13;;;;;;;14.00;5.53;;;;;;;;;;4972068;28;20374;-87
2020/12/26 11:00:38;;;;;;;13.10;4.70;;;;;;;;;;4972966;28;20018;-87
2020/12/26 11:03:03;;;;;;;21.27;6.90;;;;;;;;;;4973379;28;20117;-87
2020/12/26 11:05:28;;;;;;;20.47;7.77;;;;;;;;;;4973204;28;20105;-87
2020/12/26 11:07:54;;;;;;;10.37;5.10;;;;;;;;;;4965171;28;20034;-87
2020/12/26 11:10:19;;;;;;;26.87;8.97;;;;;;;;;;4971015;28;20030;-87
2020/12/26 11:12:44;;;;;;;11.93;5.47;;;;;;;;;;4973157;28;20023;-88
2020/12/26 11:15:09;;;;;;;9.93;5.53;;;;;;;;;;4974352;28;20030;-87
2020/12/26 11:17:35;;;;;;;12.03;5.27;;;;;;;;;;4981892;28;20101;-87
2020/12/26 11:20:00;;;;;;;10.67;4.03;;;;;;;;;;4974732;28;20027;-88
2020/12/26 11:22:25;;;;;;;10.27;4.60;;;;;;;;;;4971065;28;20385;-88
2020/12/26 11:24:50;;;;;;;11.57;4.50;;;;;;;;;;4971368;28;20034;-88
2020/12/26 11:27:15;;;;;;;11.70;4.23;;;;;;;;;;4965126;28;20019;-89
2020/12/26 11:29:41;;;;;;;14.83;4.10;;;;;;;;;;4969634;28;20578;-88
2020/12/26 11:32:06;;;;;;;12.37;4.53;;;;;;;;;;4971508;28;20030;-88
2020/12/26 11:34:31;;;;;;;18.50;4.73;;;;;;;;;;4971443;28;20167;-87
2020/12/26 11:36:56;;;;;;;8.67;4.40;;;;;;;;;;4971658;28;20023;-88
2020/12/26 11:39:22;;;;;;;10.40;4.90;;;;;;;;;;4971606;28;20022;-87
2020/12/26 11:41:47;;;;;;;12.47;4.30;;;;;;;;;;4972913;28;20490;-86
2020/12/26 11:44:12;;;;;;;10.23;4.33;;;;;;;;;;4969375;28;20035;-87
2020/12/26 11:46:37;;;;;;;10.03;4.60;;;;;;;;;;4972954;28;20046;-88
2020/12/26 11:49:03;;;;;;;9.43;4.20;;;;;;;;;;4968466;28;20022;-87
2020/12/26 11:51:28;;;;;;;10.70;3.60;;;;;;;;;;4975647;28;20090;-87
2020/12/26 11:53:54;;;;;;;7.83;3.30;;;;;;;;;;4975428;28;20085;-86
2020/12/26 11:56:19;;;;;;;9.27;3.40;;;;;;;;;;4976020;28;20381;-86
2020/12/26 11:58:47;;;;;;;7.87;2.97;;;;;;;;;;4975167;28;20553;-86
2020/12/26 12:01:16;;;;;;;6.57;3.03;;;;;;;;;;4974046;28;20482;-87
2020/12/26 12:03:43;;;;;;;7.30;3.70;;;;;;;;;;4971225;28;20046;-86
2020/12/26 12:06:10;;;;;;;9.80;4.03;;;;;;;;;;4974764;28;20015;-86
2020/12/26 12:08:35;;;;;;;11.40;3.93;;;;;;;;;;4974087;28;20022;-86
2020/12/26 12:11:01;;;;;;;8.70;3.60;;;;;;;;;;4974875;28;20405;-86
2020/12/26 12:13:26;;;;;;;10.97;3.77;;;;;;;;;;4975035;28;20113;-86
2020/12/26 12:15:51;;;;;;;12.33;3.30;;;;;;;;;;4974594;28;20019;-86
2020/12/26 12:18:16;;;;;;;9.33;3.50;;;;;;;;;;4970223;28;20031;-86
2020/12/26 12:20:42;;;;;;;10.03;3.10;;;;;;;;;;4974434;28;20040;-86
2020/12/26 12:23:07;;;;;;;8.87;3.40;;;;;;;;;;4973997;28;20367;-86
2020/12/26 12:25:32;;;;;;;7.17;2.53;;;;;;;;;;4970208;28;20474;-86
2020/12/26 12:27:57;;;;;;;9.27;2.73;;;;;;;;;;4970548;28;20031;-85
2020/12/26 12:30:23;;;;;;;8.70;2.90;;;;;;;;;;4976259;28;20458;-86
2020/12/26 12:32:49;;;;;;;9.70;3.63;;;;;;;;;;4974893;28;20496;-85
2020/12/26 12:35:15;;;;;;;9.90;3.57;;;;;;;;;;4976430;28;20611;-86
2020/12/26 12:37:40;;;;;;;11.77;3.00;;;;;;;;;;4974939;28;20034;-85
2020/12/26 12:40:06;;;;;;;8.53;3.03;;;;;;;;;;4974908;28;20029;-85
2020/12/26 12:42:31;;;;;;;7.77;3.27;;;;;;;;;;4974706;28;20026;-84
2020/12/26 12:44:56;;;;;;;6.43;3.27;;;;;;;;;;4976096;28;20026;-84
2020/12/26 12:47:25;;;;;;;9.47;2.90;;;;;;;;;;4974586;28;20102;-84
2020/12/26 12:49:51;;;;;;;5.80;2.83;;;;;;;;;;4972095;28;20066;-84
2020/12/26 12:52:16;;;;;;;10.57;3.17;;;;;;;;;;4974427;28;20057;-85
2020/12/26 12:54:41;;;;;;;6.23;2.60;;;;;;;;;;4974724;28;20051;-85
2020/12/26 12:57:06;;;;;;;10.03;2.90;;;;;;;;;;4974554;28;20022;-84
2020/12/26 12:59:32;;;;;;;7.87;2.97;;;;;;;;;;4973919;28;20103;-84
2020/12/26 13:01:58;;;;;;;7.17;2.50;;;;;;;;;;4974715;28;20378;-84
2020/12/26 13:04:23;;;;;;;7.53;2.40;;;;;;;;;;4972116;28;20031;-84
2020/12/26 13:06:51;;;;;;;7.73;2.70;;;;;;;;;;4969938;28;20116;-85
2020/12/26 13:09:16;;;;;;;10.23;2.63;;;;;;;;;;4965192;28;20077;-85
2020/12/26 13:11:43;;;;;;;7.40;3.17;;;;;;;;;;4973334;28;20026;-84
2020/12/26 13:14:08;;;;;;;10.17;2.93;;;;;;;;;;4976668;28;20092;-85
2020/12/26 13:16:33;;;;;;;8.03;2.67;;;;;;;;;;4973958;28;20050;-85
2020/12/26 13:18:58;;;;;;;10.13;3.10;;;;;;;;;;4974053;28;20172;-86
2020/12/26 13:21:24;;;;;;;7.77;2.57;;;;;;;;;;4973950;28;20025;-85
2020/12/26 13:23:49;;;;;;;7.03;2.73;;;;;;;;;;4972788;28;20073;-86
2020/12/26 13:26:17;;;;;;;7.63;2.63;;;;;;;;;;4973775;28;20025;-85
2020/12/26 13:28:42;;;;;;;12.40;2.90;;;;;;;;;;4974130;28;20023;-83
2020/12/26 13:31:08;;;;;;;10.50;2.67;;;;;;;;;;4970990;28;20085;-83
2020/12/26 13:33:33;;;;;;;7.90;2.30;;;;;;;;;;4973760;28;20037;-83
2020/12/26 13:35:58;;;;;;;8.93;2.67;;;;;;;;;;4972686;28;20030;-82
2020/12/26 13:38:23;;;;;;;14.57;2.53;;;;;;;;;;4973699;28;20019;-83
2020/12/26 13:40:48;;;;;;;16.50;3.23;;;;;;;;;;4973562;28;20026;-83
2020/12/26 13:43:14;;;;;;;9.43;2.70;;;;;;;;;;4971928;28;20038;-83
2020/12/26 13:45:39;;;;;;;8.20;2.67;;;;;;;;;;4970381;28;20105;-85
2020/12/26 13:48:04;;;;;;;10.60;2.97;;;;;;;;;;4973453;28;20466;-85
2020/12/26 13:50:29;;;;;;;8.20;2.87;;;;;;;;;;4973569;28;20019;-84
2020/12/26 13:52:55;;;;;;;5.90;2.73;;;;;;;;;;4973769;28;20136;-84
2020/12/26 13:55:20;;;;;;;10.53;3.37;;;;;;;;;;4973611;28;20031;-84
2020/12/26 13:57:45;;;;;;;6.73;2.20;;;;;;;;;;4968533;28;20011;-85
2020/12/26 14:00:10;;;;;;;7.40;3.20;;;;;;;;;;4967545;28;20482;-86
2020/12/26 14:02:35;;;;;;;13.60;3.80;;;;;;;;;;4973598;28;20089;-87
2020/12/26 14:05:01;;;;;;;10.93;3.33;;;;;;;;;;4968782;28;20022;-86
2020/12/26 14:07:26;;;;;;;14.30;3.10;;;;;;;;;;4973084;28;20007;-86
2020/12/26 14:09:51;;;;;;;8.70;3.40;;;;;;;;;;4978078;28;20031;-87
2020/12/26 14:12:16;;;;;;;10.40;3.50;;;;;;;;;;4977590;28;20061;-87
2020/12/26 14:14:41;;;;;;;12.20;3.77;;;;;;;;;;4973539;28;20084;-87
2020/12/26 14:17:07;;;;;;;7.17;3.10;;;;;;;;;;4972381;28;20045;-87
2020/12/26 14:19:32;;;;;;;9.40;3.10;;;;;;;;;;4966731;28;20027;-88
2020/12/26 14:21:57;;;;;;;10.27;3.53;;;;;;;;;;4971563;28;20038;-85
2020/12/26 14:24:22;;;;;;;7.87;3.10;;;;;;;;;;4969052;28;20435;-89
2020/12/26 14:26:48;;;;;;;8.60;2.37;;;;;;;;;;4969101;28;20057;-87